Time;durP1;ratioP1;P1;durP2;ratioP2;P2;SDS_P1;SDS_P2;PMS_P1;PMS_P2;Temp;Humidity;BMP_temperature;BMP_pressure;BME280_temperature;BME280_humidity;BME280_pressure;Samples;Min_cycle;Max_cycle;Signal;HPM_P1;HPM_P2
2022/07/30 00:01:16;;;;;;;4.95;3.95;;;;;;;16.21;98.56;98598.94;4201463;28;20052;-72
2022/07/30 00:03:16;;;;;;;6.97;4.10;;;;;;;16.15;99.39;98595.00;4200899;28;20460;-72
2022/07/30 00:05:16;;;;;;;4.47;3.33;;;;;;;16.10;100.00;98603.81;4201752;28;20067;-72
2022/07/30 00:07:17;;;;;;;4.45;4.05;;;;;;;16.01;100.00;98604.28;4202862;28;20040;-72
2022/07/30 00:09:17;;;;;;;5.45;4.35;;;;;;;15.95;100.00;98600.34;4202177;28;20048;-72
2022/07/30 00:11:20;;;;;;;5.15;3.90;;;;;;;15.90;100.00;98598.03;4202079;28;20032;-72
2022/07/30 00:13:20;;;;;;;;;;;;;;;15.89;100.00;98602.00;4202901;28;20054;-72
2022/07/30 00:15:20;;;;;;;5.25;4.05;;;;;;;15.86;100.00;98600.03;4200926;28;20256;-72
2022/07/30 00:17:21;;;;;;;4.45;4.00;;;;;;;15.86;100.00;98604.81;4202526;28;20480;-72
2022/07/30 00:19:21;;;;;;;5.30;3.83;;;;;;;15.93;98.86;98613.13;4201872;28;20172;-72
2022/07/30 00:21:21;;;;;;;5.18;4.25;;;;;;;15.97;98.57;98600.75;4201616;28;20131;-72
2022/07/30 00:23:22;;;;;;;6.43;4.40;;;;;;;15.99;98.81;98605.91;4200938;28;20479;-72
2022/07/30 00:25:23;;;;;;;5.57;4.13;;;;;;;15.95;99.80;98614.31;4201491;28;20384;-72
2022/07/30 00:27:24;;;;;;;4.60;4.20;;;;;;;15.92;100.00;98609.56;4201893;28;20048;-71
2022/07/30 00:29:25;;;;;;;5.38;4.88;;;;;;;15.93;100.00;98613.94;4201554;28;20423;-72
2022/07/30 00:31:25;;;;;;;4.90;4.32;;;;;;;15.89;100.00;98610.38;4201855;28;20120;-72
2022/07/30 00:33:26;;;;;;;4.75;4.25;;;;;;;15.88;100.00;98611.56;4201065;28;20122;-72
2022/07/30 00:35:26;;;;;;;5.70;4.07;;;;;;;15.98;97.35;98609.91;4200617;28;20048;-72
2022/07/30 00:37:26;;;;;;;6.30;4.95;;;;;;;15.98;100.00;98616.28;4202819;28;20155;-72
2022/07/30 00:39:28;;;;;;;5.35;4.82;;;;;;;15.96;100.00;98615.88;4196374;28;20045;-72
2022/07/30 00:41:28;;;;;;;7.18;4.95;;;;;;;15.92;100.00;98611.56;4199944;28;20093;-72
2022/07/30 00:43:29;;;;;;;6.93;5.10;;;;;;;15.90;100.00;98616.75;4202200;28;20060;-72
2022/07/30 00:45:29;;;;;;;5.53;5.00;;;;;;;15.89;99.63;98615.97;4200449;28;20066;-72
2022/07/30 00:47:29;;;;;;;8.70;5.75;;;;;;;15.85;100.00;98619.97;4201974;28;20080;-72
2022/07/30 00:49:30;;;;;;;5.60;4.70;;;;;;;15.82;100.00;98623.59;4201582;28;20501;-72
2022/07/30 00:51:30;;;;;;;7.85;5.63;;;;;;;15.82;100.00;98627.16;4201948;28;20083;-72
2022/07/30 00:53:31;;;;;;;9.32;5.05;;;;;;;15.82;100.00;98626.38;4201376;28;20058;-72
2022/07/30 00:55:32;;;;;;;11.30;5.95;;;;;;;15.80;100.00;98634.34;4201411;28;20048;-72
2022/07/30 00:57:32;;;;;;;9.27;5.43;;;;;;;15.78;100.00;98628.38;4201529;28;20033;-72
2022/07/30 00:59:33;;;;;;;5.60;5.03;;;;;;;15.77;100.00;98624.81;4202145;28;20414;-71
2022/07/30 01:01:34;;;;;;;10.07;5.70;;;;;;;15.78;100.00;98626.38;4201457;28;20036;-72
2022/07/30 01:03:36;;;;;;;12.27;6.03;;;;;;;15.73;100.00;98616.47;4200338;28;20048;-72
2022/07/30 01:05:36;;;;;;;7.97;5.80;;;;;;;15.75;100.00;98610.47;4200708;28;20036;-72
2022/07/30 01:07:37;;;;;;;7.70;5.35;;;;;;;15.77;100.00;98608.06;4201255;28;20063;-72
2022/07/30 01:09:38;;;;;;;6.72;5.75;;;;;;;15.79;100.00;98613.22;4201228;28;20039;-72
2022/07/30 01:11:41;;;;;;;10.05;5.03;;;;;;;15.81;100.00;98606.06;4201829;28;20048;-72
2022/07/30 01:13:42;;;;;;;10.63;5.97;;;;;;;15.84;100.00;98601.66;4200112;28;20484;-72
2022/07/30 01:15:43;;;;;;;9.15;6.03;;;;;;;15.85;100.00;98608.81;4201166;28;20048;-71
2022/07/30 01:17:46;;;;;;;7.22;6.45;;;;;;;15.85;100.00;98612.38;4201821;28;20051;-72
2022/07/30 01:19:54;;;;;;;11.57;6.95;;;;;;;15.81;100.00;98613.63;4201264;28;20515;-72
2022/07/30 01:22:22;;;;;;;13.27;7.65;;;;;;;15.82;100.00;98610.44;4201597;28;20044;-71
2022/07/30 01:24:43;;;;;;;13.02;6.57;;;;;;;15.82;100.00;98602.06;4186328;28;20090;-72
2022/07/30 01:26:43;;;;;;;12.13;6.75;;;;;;;15.84;100.00;98598.84;4200089;28;20453;-72
2022/07/30 01:28:53;;;;;;;11.40;6.55;;;;;;;15.89;100.00;98598.44;4199747;28;20377;-72
2022/07/30 01:30:56;;;;;;;13.25;6.72;;;;;;;15.89;100.00;98599.22;4198310;28;20392;-72
2022/07/30 01:32:58;;;;;;;13.55;7.15;;;;;;;15.84;100.00;98593.28;4197927;28;20040;-72
2022/07/30 01:35:01;;;;;;;12.98;7.63;;;;;;;15.83;100.00;98597.28;4199176;28;20044;-72
2022/07/30 01:37:02;;;;;;;7.90;6.18;;;;;;;15.80;100.00;98595.28;4202234;28;20697;-72
2022/07/30 01:39:03;;;;;;;9.00;6.80;;;;;;;15.78;100.00;98604.06;4201292;28;20096;-72
2022/07/30 01:41:06;;;;;;;8.90;6.63;;;;;;;15.79;100.00;98604.88;4201133;28;20032;-72
2022/07/30 01:43:07;;;;;;;8.30;6.55;;;;;;;15.79;100.00;98605.66;4201155;28;20127;-72
2022/07/30 01:45:10;;;;;;;7.15;6.25;;;;;;;15.81;100.00;98602.47;4202706;28;20048;-72
2022/07/30 01:47:14;;;;;;;8.52;5.97;;;;;;;15.79;100.00;98611.22;4201705;28;20159;-72
2022/07/30 01:49:16;;;;;;;8.85;6.18;;;;;;;15.80;100.00;98603.66;4200740;28;20041;-72
2022/07/30 01:51:18;;;;;;;7.67;6.23;;;;;;;15.83;100.00;98608.44;4200436;28;20432;-72
2022/07/30 01:53:23;;;;;;;7.40;6.70;;;;;;;15.79;100.00;98599.28;4201377;28;20282;-72
2022/07/30 01:55:33;;;;;;;10.07;6.25;;;;;;;15.76;100.00;98602.91;4200639;28;20039;-72
2022/07/30 01:57:36;;;;;;;10.93;6.60;;;;;;;15.80;100.00;98606.44;4202279;28;20040;-72
2022/07/30 01:59:39;;;;;;;7.82;5.55;;;;;;;15.80;100.00;98606.44;4199136;28;20036;-72
2022/07/30 02:01:39;;;;;;;7.50;5.57;;;;;;;15.79;100.00;98611.22;4201006;28;20098;-72
2022/07/30 02:03:40;;;;;;;11.45;6.15;;;;;;;15.82;100.00;98609.63;4200395;28;20408;-72
2022/07/30 02:05:44;;;;;;;7.05;5.88;;;;;;;15.82;100.00;98604.06;4203743;28;20043;-72
2022/07/30 02:07:49;;;;;;;7.15;6.38;;;;;;;15.84;100.00;98610.81;4199768;28;20033;-72
2022/07/30 02:09:54;;;;;;;6.88;5.65;;;;;;;15.87;100.00;98617.56;4201637;28;20043;-72
2022/07/30 02:14:27;;;;;;;7.63;5.60;;;;;;;15.87;100.00;98615.56;4200929;28;20109;-72
2022/07/30 02:16:35;;;;;;;9.05;5.50;;;;;;;15.90;100.00;98617.53;4202771;28;20047;-72
2022/07/30 02:19:01;;;;;;;6.85;5.40;;;;;;;15.91;100.00;98618.34;4201775;28;20512;-72
2022/07/30 02:21:06;;;;;;;9.35;5.80;;;;;;;15.91;100.00;98615.53;4202839;28;20052;-72
2022/07/30 02:23:10;;;;;;;16.75;5.03;;;;;;;15.86;100.00;98621.56;4200439;28;20372;-72
2022/07/30 02:25:14;;;;;;;6.78;5.65;;;;;;;15.86;100.00;98613.97;4201989;28;20068;-72
2022/07/30 02:27:20;;;;;;;6.55;5.75;;;;;;;15.81;100.00;98613.63;4203758;28;20248;-72
2022/07/30 02:29:22;;;;;;;6.95;5.43;;;;;;;15.79;100.00;98607.66;4203046;28;20604;-71
2022/07/30 02:31:26;;;;;;;5.68;5.07;;;;;;;15.82;100.00;98616.00;4201386;28;20404;-71
2022/07/30 02:33:30;;;;;;;6.93;5.50;;;;;;;15.78;100.00;98612.44;4200353;28;20055;-71
2022/07/30 02:35:32;;;;;;;6.35;5.13;;;;;;;15.75;100.00;98612.47;4203111;28;20051;-71
2022/07/30 02:37:32;;;;;;;7.20;5.80;;;;;;;15.71;100.00;98610.50;4203896;28;20040;-72
2022/07/30 02:39:35;;;;;;;7.03;5.60;;;;;;;15.69;100.00;98615.69;4202795;28;20105;-72
2022/07/30 02:41:38;;;;;;;7.15;5.57;;;;;;;15.70;100.00;98620.06;4201905;28;20040;-72
2022/07/30 02:43:41;;;;;;;9.05;5.90;;;;;;;15.68;100.00;98616.91;4202471;28;20073;-72
2022/07/30 02:45:45;;;;;;;5.72;5.13;;;;;;;15.68;100.00;98614.09;4201021;28;20048;-72
2022/07/30 02:47:49;;;;;;;9.70;5.78;;;;;;;15.63;100.00;98610.94;4202178;28;20044;-72
2022/07/30 02:49:51;;;;;;;7.50;5.10;;;;;;;15.64;100.00;98601.41;4202835;28;20545;-72
2022/07/30 02:51:53;;;;;;;6.07;5.22;;;;;;;15.65;100.00;98606.56;4201020;28;20036;-72
2022/07/30 02:53:55;;;;;;;5.57;4.65;;;;;;;15.64;100.00;98604.97;4201881;28;20131;-72
2022/07/30 02:55:55;;;;;;;7.68;4.97;;;;;;;15.63;100.00;98606.16;4202495;28;20051;-72
2022/07/30 02:57:57;;;;;;;10.38;5.40;;;;;;;15.68;100.00;98605.75;4202555;28;20048;-71
2022/07/30 02:59:59;;;;;;;9.73;5.70;;;;;;;15.66;100.00;98602.56;4202855;28;20484;-72
2022/07/30 03:01:59;;;;;;;7.75;5.22;;;;;;;15.68;100.00;98602.94;4200917;28;20048;-72
2022/07/30 03:04:02;;;;;;;9.70;5.07;;;;;;;15.64;100.00;98604.97;4201400;28;20359;-72
2022/07/30 03:06:04;;;;;;;;;;;;;;;15.63;100.00;98617.31;4202743;28;20039;-72
2022/07/30 03:08:07;;;;;;;7.15;5.07;;;;;;;15.64;100.00;98609.78;4203224;28;19912;-71
2022/07/30 03:10:08;;;;;;;8.40;5.22;;;;;;;15.63;100.00;98614.53;4200635;28;20062;-71
2022/07/30 03:12:11;;;;;;;9.93;5.22;;;;;;;15.62;100.00;98610.16;4202166;28;20040;-72
2022/07/30 03:14:11;;;;;;;6.97;5.03;;;;;;;15.63;100.00;98614.53;4200712;28;20077;-72
2022/07/30 03:16:13;;;;;;;12.63;6.97;;;;;;;15.63;100.00;98614.53;4202621;28;20027;-72
2022/07/30 03:18:16;;;;;;;10.80;5.05;;;;;;;15.64;100.00;98624.50;4202393;28;20370;-72
2022/07/30 03:20:22;;;;;;;5.90;4.60;;;;;;;15.64;100.00;98632.09;4200916;28;20434;-72
2022/07/30 03:22:25;;;;;;;7.43;4.93;;;;;;;15.65;100.00;98640.03;4200646;28;20143;-72
2022/07/30 03:24:26;;;;;;;7.85;5.32;;;;;;;15.62;100.00;98637.25;4201520;28;20073;-72
2022/07/30 03:26:28;;;;;;;6.90;5.05;;;;;;;15.63;100.00;98639.63;4202764;28;20083;-72
2022/07/30 03:28:33;;;;;;;5.80;4.80;;;;;;;15.62;100.00;98638.03;4201471;28;20468;-72
2022/07/30 03:30:34;;;;;;;5.70;5.10;;;;;;;15.59;100.00;98638.06;4201956;28;20044;-72
2022/07/30 03:32:35;;;;;;;7.63;4.63;;;;;;;15.64;100.00;98638.47;4200677;28;20046;-72
2022/07/30 03:34:36;;;;;;;5.38;4.88;;;;;;;15.63;100.00;98634.06;4200120;28;20524;-71
2022/07/30 03:36:39;;;;;;;7.63;5.15;;;;;;;15.55;100.00;98640.84;4204087;28;20075;-71
2022/07/30 03:38:41;;;;;;;8.27;5.20;;;;;;;15.55;100.00;98651.19;4201856;28;20131;-71
2022/07/30 03:40:43;;;;;;;8.43;5.40;;;;;;;15.48;100.00;98645.69;4194207;28;20060;-71
2022/07/30 03:42:44;;;;;;;6.30;5.20;;;;;;;15.44;100.00;98642.91;4199738;28;20631;-71
2022/07/30 03:44:45;;;;;;;6.13;4.82;;;;;;;15.43;100.00;98644.13;4201038;28;20078;-71
2022/07/30 03:46:49;;;;;;;7.68;5.28;;;;;;;15.39;100.00;98644.16;4202251;28;20769;-71
2022/07/30 03:48:51;;;;;;;7.15;5.15;;;;;;;15.46;100.00;98640.50;4200403;28;20073;-71
2022/07/30 03:50:53;;;;;;;5.28;4.78;;;;;;;15.42;100.00;98648.09;4200567;28;20476;-71
2022/07/30 03:52:54;;;;;;;9.55;5.20;;;;;;;15.37;100.00;98640.94;4202327;28;20036;-71
2022/07/30 03:54:54;;;;;;;6.57;5.05;;;;;;;15.35;100.00;98640.56;4199770;28;20046;-71
2022/07/30 03:56:55;;;;;;;8.65;4.47;;;;;;;15.31;100.00;98633.44;4202046;28;20051;-71
2022/07/30 03:58:55;;;;;;;6.00;5.05;;;;;;;15.37;100.00;98640.16;4201207;28;20071;-71
2022/07/30 04:00:55;;;;;;;10.32;4.63;;;;;;;15.34;100.00;98636.19;4201299;28;20133;-71
2022/07/30 04:02:56;;;;;;;9.15;5.00;;;;;;;15.30;100.00;98643.75;4199670;28;20036;-71
2022/07/30 04:04:56;;;;;;;10.82;5.50;;;;;;;15.30;100.00;98637.41;4197882;28;20507;-71
2022/07/30 04:06:57;;;;;;;6.00;5.35;;;;;;;15.27;100.00;98638.22;4202592;28;20113;-71
2022/07/30 04:08:57;;;;;;;13.18;5.50;;;;;;;15.28;100.00;98637.00;4200810;28;20380;-71
2022/07/30 04:10:58;;;;;;;6.43;4.85;;;;;;;15.28;100.00;98645.38;4199512;28;20052;-71
2022/07/30 04:12:59;;;;;;;6.22;5.57;;;;;;;15.29;100.00;98644.97;4198546;28;20051;-71
2022/07/30 04:14:59;;;;;;;6.45;5.57;;;;;;;15.29;100.00;98644.19;4199912;28;20051;-71
2022/07/30 04:17:02;;;;;;;6.65;5.72;;;;;;;15.27;100.00;98649.38;4200142;28;20044;-71
2022/07/30 04:19:08;;;;;;;8.95;5.82;;;;;;;15.25;100.00;98649.78;4198749;28;20055;-71
2022/07/30 04:21:11;;;;;;;6.35;5.55;;;;;;;15.28;100.00;98662.09;4201765;28;20048;-71
2022/07/30 04:23:12;;;;;;;10.18;5.50;;;;;;;15.30;100.00;98662.47;4200984;28;20063;-71
2022/07/30 04:25:13;;;;;;;9.95;5.93;;;;;;;15.29;100.00;98661.69;4200627;28;20294;-71
2022/07/30 04:27:15;;;;;;;7.07;5.75;;;;;;;15.32;100.00;98657.31;4201422;28;20132;-71
2022/07/30 04:29:17;;;;;;;6.78;6.05;;;;;;;15.33;100.00;98665.28;4200462;28;20638;-71
2022/07/30 04:31:17;;;;;;;6.72;6.05;;;;;;;15.34;100.00;98664.06;4199826;28;20558;-71
2022/07/30 04:33:17;;;;;;;6.43;5.80;;;;;;;15.35;100.00;98667.66;4201193;28;20044;-71
2022/07/30 04:35:27;;;;;;;7.95;6.47;;;;;;;15.32;100.00;98660.91;4201178;28;20333;-71
2022/07/30 04:37:27;;;;;;;8.07;5.90;;;;;;;15.36;100.00;98660.88;4201034;28;20558;-71
2022/07/30 04:39:28;;;;;;;7.68;5.65;;;;;;;15.38;100.00;98664.84;4200813;28;20052;-71
2022/07/30 04:41:28;;;;;;;7.13;5.25;;;;;;;15.41;100.00;98666.81;4201711;28;20040;-71
2022/07/30 04:43:28;;;;;;;8.73;5.80;;;;;;;15.43;100.00;98670.00;4199777;28;20083;-71
2022/07/30 04:45:28;;;;;;;6.35;5.75;;;;;;;15.47;100.00;98672.75;4199505;28;20059;-71
2022/07/30 04:47:29;;;;;;;6.88;5.60;;;;;;;15.43;100.00;98670.00;4200570;28;20056;-71
2022/07/30 04:49:31;;;;;;;6.50;5.50;;;;;;;15.48;100.00;98668.78;4199988;28;20123;-71
2022/07/30 04:51:33;;;;;;;8.25;6.13;;;;;;;15.49;100.00;98673.16;4199782;28;20044;-71
2022/07/30 04:53:34;;;;;;;8.15;6.10;;;;;;;15.45;100.00;98670.38;4201009;28;20062;-71
2022/07/30 04:55:37;;;;;;;6.95;6.07;;;;;;;15.49;100.00;98667.59;4200775;28;20048;-71
2022/07/30 04:57:39;;;;;;;8.68;6.40;;;;;;;15.53;100.00;98676.72;4202255;28;20067;-71
2022/07/30 04:59:39;;;;;;;9.77;6.55;;;;;;;15.52;100.00;98674.34;4200727;28;20043;-71
2022/07/30 05:01:42;;;;;;;6.28;5.65;;;;;;;15.55;100.00;98670.72;4193242;28;20040;-71
2022/07/30 05:03:43;;;;;;;;;;;;;;;15.55;100.00;98673.50;4201002;28;20083;-71
2022/07/30 05:05:45;;;;;;;7.57;5.78;;;;;;;15.54;100.00;98675.50;4200953;28;20340;-71
2022/07/30 05:07:45;;;;;;;8.27;5.65;;;;;;;15.53;100.00;98668.34;4201700;28;20182;-71
2022/07/30 05:09:46;;;;;;;6.28;5.30;;;;;;;15.53;100.00;98678.72;4203016;28;20127;-71
2022/07/30 05:11:51;;;;;;;7.43;5.90;;;;;;;15.52;100.00;98674.34;4202844;28;20056;-71
2022/07/30 05:13:52;;;;;;;6.60;5.78;;;;;;;15.56;100.00;98673.13;4204982;28;20056;-71
2022/07/30 05:15:52;;;;;;;8.57;5.82;;;;;;;15.55;100.00;98665.94;4203780;28;20052;-71
2022/07/30 05:17:53;;;;;;;9.82;6.03;;;;;;;15.57;100.00;98668.34;4204715;28;20349;-72
2022/07/30 05:19:53;;;;;;;7.03;5.63;;;;;;;15.60;100.00;98670.31;4204252;28;20481;-71
2022/07/30 05:21:53;;;;;;;8.48;5.65;;;;;;;15.61;100.00;98669.94;4204238;28;20040;-71
2022/07/30 05:23:54;;;;;;;9.27;5.88;;;;;;;15.62;100.00;98677.09;4202561;28;20044;-72
2022/07/30 05:25:54;;;;;;;8.38;6.43;;;;;;;15.61;100.00;98678.28;4202798;28;20484;-72
2022/07/30 05:27:56;;;;;;;7.18;6.13;;;;;;;15.60;100.00;98665.53;4204778;28;20040;-72
2022/07/30 05:29:57;;;;;;;8.32;6.53;;;;;;;15.66;100.00;98674.31;4204198;28;20044;-72
2022/07/30 05:31:57;;;;;;;7.18;5.78;;;;;;;15.71;100.00;98669.06;4202232;28;20491;-71
2022/07/30 05:33:57;;;;;;;8.23;6.00;;;;;;;15.76;100.00;98658.69;4203619;28;20047;-71
2022/07/30 05:35:59;;;;;;;10.23;6.75;;;;;;;15.83;100.00;98667.81;4204726;28;20401;-71
2022/07/30 05:37:59;;;;;;;6.47;5.80;;;;;;;15.86;100.00;98661.41;4204193;28;20072;-72
2022/07/30 05:40:00;;;;;;;10.70;6.90;;;;;;;15.92;100.00;98667.34;4202473;28;20129;-72
2022/07/30 05:42:00;;;;;;;7.97;6.05;;;;;;;15.94;100.00;98665.72;4200233;28;20052;-72
2022/07/30 05:44:00;;;;;;;8.85;6.50;;;;;;;15.97;100.00;98659.34;4203762;28;20303;-72
2022/07/30 05:46:01;;;;;;;9.48;6.65;;;;;;;16.01;100.00;98660.09;4202505;28;20040;-72
2022/07/30 05:48:01;;;;;;;6.22;5.63;;;;;;;16.05;100.00;98662.84;4204258;28;20028;-72
2022/07/30 05:50:02;;;;;;;8.63;6.35;;;;;;;16.12;100.00;98653.66;4203308;28;20482;-72
2022/07/30 05:52:02;;;;;;;9.13;6.45;;;;;;;16.13;100.00;98656.03;4202259;28;20468;-72
2022/07/30 05:54:03;;;;;;;7.35;6.63;;;;;;;16.18;100.00;98672.34;4202910;28;20040;-72
2022/07/30 05:56:03;;;;;;;7.53;6.70;;;;;;;16.21;100.00;98668.72;4202368;28;20024;-72
2022/07/30 05:58:04;;;;;;;13.40;7.93;;;;;;;16.24;100.00;98658.75;4201892;28;20118;-72
2022/07/30 06:00:06;;;;;;;8.18;7.38;;;;;;;16.25;100.00;98649.16;4145862;27;20951;-72
2022/07/30 06:02:07;;;;;;;7.63;6.82;;;;;;;16.29;100.00;98655.50;4201660;28;20044;-72
2022/07/30 06:04:07;;;;;;;7.70;6.47;;;;;;;16.35;100.00;98662.22;4201722;28;20095;-71
2022/07/30 06:06:07;;;;;;;8.65;6.35;;;;;;;16.37;100.00;98653.44;4201685;28;20473;-71
2022/07/30 06:08:08;;;;;;;8.23;7.05;;;;;;;16.41;100.00;98651.41;4203597;28;20806;-71
2022/07/30 06:10:08;;;;;;;9.68;7.00;;;;;;;16.46;100.00;98654.53;4203271;28;20081;-71
2022/07/30 06:12:09;;;;;;;9.57;6.50;;;;;;;16.48;100.00;98651.34;4203658;28;20028;-71
2022/07/30 06:14:09;;;;;;;8.48;7.00;;;;;;;16.48;100.00;98656.94;4202737;28;20028;-72
2022/07/30 06:16:09;;;;;;;9.05;7.00;;;;;;;16.44;100.00;98651.38;4201597;28;20207;-72
2022/07/30 06:18:09;;;;;;;9.38;7.72;;;;;;;16.47;100.00;98650.56;4204481;28;20731;-72
2022/07/30 06:20:12;;;;;;;9.27;6.82;;;;;;;16.52;100.00;98666.84;4202435;28;20040;-72
2022/07/30 06:22:12;;;;;;;12.98;7.15;;;;;;;16.57;100.00;98671.22;4202771;28;20040;-72
2022/07/30 06:24:13;;;;;;;8.88;7.00;;;;;;;16.57;99.80;98668.41;4199382;28;20443;-72
2022/07/30 06:26:14;;;;;;;10.00;7.63;;;;;;;16.61;99.12;98669.16;4201990;28;20028;-72
2022/07/30 06:28:16;;;;;;;10.63;7.30;;;;;;;16.68;99.87;98663.50;4201398;28;20024;-72
2022/07/30 06:30:16;;;;;;;11.57;7.00;;;;;;;16.74;99.03;98667.47;4200164;28;20067;-72
2022/07/30 06:32:18;;;;;;;9.25;7.43;;;;;;;16.69;98.65;98662.34;4203825;28;20027;-72
2022/07/30 06:34:18;;;;;;;15.35;7.32;;;;;;;16.79;99.46;98674.59;4201882;28;20031;-72
2022/07/30 06:36:19;;;;;;;11.50;6.80;;;;;;;16.85;98.07;98672.94;4202209;28;20732;-72
2022/07/30 06:38:19;;;;;;;10.93;7.20;;;;;;;17.02;96.48;98666.38;4201665;28;20039;-72
2022/07/30 06:40:20;;;;;;;10.07;6.70;;;;;;;17.20;97.09;98671.75;4200915;28;20419;-72
2022/07/30 06:42:20;;;;;;;9.20;6.30;;;;;;;17.25;93.31;98668.50;4203821;28;20034;-72
2022/07/30 06:44:21;;;;;;;9.63;6.72;;;;;;;17.23;91.91;98662.53;4200015;28;20658;-72
2022/07/30 06:46:21;;;;;;;8.57;6.15;;;;;;;17.39;93.17;98659.94;4201987;28;20468;-72
2022/07/30 06:48:22;;;;;;;8.55;6.70;;;;;;;17.42;93.04;98661.88;4202386;28;20169;-72
2022/07/30 06:50:22;;;;;;;8.68;6.57;;;;;;;17.37;93.70;98656.75;4203714;28;20036;-72
2022/07/30 06:52:23;;;;;;;8.77;6.03;;;;;;;17.43;94.21;98662.69;4202721;28;20442;-72
2022/07/30 06:54:23;;;;;;;8.45;6.80;;;;;;;17.45;93.46;98659.47;4200945;28;20044;-72
2022/07/30 06:56:24;;;;;;;7.53;6.30;;;;;;;17.45;93.18;98660.25;4202529;28;20044;-72
2022/07/30 06:58:24;;;;;;;14.02;6.80;;;;;;;17.40;92.98;98661.53;4202619;28;20036;-72
2022/07/30 07:00:25;;;;;;;9.32;6.78;;;;;;;17.49;92.73;98660.22;4202242;28;20043;-72
2022/07/30 07:02:25;;;;;;;7.80;6.30;;;;;;;17.54;91.78;98663.34;4201064;28;20218;-72
2022/07/30 07:04:26;;;;;;;6.15;5.63;;;;;;;17.65;91.77;98661.19;4202566;28;20052;-72
2022/07/30 07:06:26;;;;;;;7.28;6.55;;;;;;;17.71;89.81;98666.31;4200844;28;20135;-71
2022/07/30 07:08:26;;;;;;;6.82;6.22;;;;;;;17.77;90.30;98661.84;4200477;28;20052;-72
2022/07/30 07:10:27;;;;;;;9.43;6.40;;;;;;;17.88;89.41;98668.88;4202125;28;20036;-72
2022/07/30 07:12:28;;;;;;;6.05;5.45;;;;;;;18.09;89.17;98664.16;4199687;28;20499;-72
2022/07/30 07:14:28;;;;;;;7.25;5.90;;;;;;;18.13;87.96;98665.72;4201834;28;20092;-72
2022/07/30 07:16:28;;;;;;;6.75;6.05;;;;;;;18.11;88.33;98658.94;4203057;28;20733;-72
2022/07/30 07:18:29;;;;;;;6.95;5.68;;;;;;;18.13;86.59;98668.50;4201089;28;20186;-72
2022/07/30 07:20:29;;;;;;;9.13;6.80;;;;;;;18.24;89.35;98668.31;4200768;28;20458;-72
2022/07/30 07:22:29;;;;;;;9.68;6.60;;;;;;;18.29;86.54;98669.84;4200510;28;20123;-72
2022/07/30 07:24:30;;;;;;;7.25;5.75;;;;;;;18.38;86.46;98672.91;4200799;28;20067;-71
2022/07/30 07:26:30;;;;;;;6.13;5.53;;;;;;;18.15;84.46;98668.88;4201808;28;20075;-72
2022/07/30 07:28:31;;;;;;;10.27;6.57;;;;;;;18.13;85.01;98673.31;4201966;28;20464;-72
2022/07/30 07:30:31;;;;;;;6.80;5.88;;;;;;;18.16;86.32;98670.44;4199375;28;20036;-72
2022/07/30 07:32:33;;;;;;;6.95;5.78;;;;;;;18.30;88.10;98671.44;4201149;28;20476;-72
2022/07/30 07:34:33;;;;;;;8.23;5.93;;;;;;;18.31;85.67;98675.81;4203145;28;20400;-72
2022/07/30 07:36:35;;;;;;;8.25;5.97;;;;;;;18.28;84.27;98671.06;4202837;28;20309;-72
2022/07/30 07:38:35;;;;;;;7.22;5.82;;;;;;;18.43;86.01;98676.00;4202306;28;20051;-72
2022/07/30 07:40:35;;;;;;;7.43;5.68;;;;;;;18.23;83.00;98673.13;4201219;28;20059;-72
2022/07/30 07:42:36;;;;;;;7.57;5.88;;;;;;;18.32;84.05;98672.59;4201255;28;20052;-72
2022/07/30 07:44:36;;;;;;;10.20;6.18;;;;;;;18.49;84.67;98665.09;4202066;28;20664;-72
2022/07/30 07:46:36;;;;;;;6.57;5.43;;;;;;;18.76;85.40;98663.03;4200867;28;20041;-72
2022/07/30 07:48:38;;;;;;;9.23;5.80;;;;;;;19.00;83.37;98668.59;4201376;28;20420;-72
2022/07/30 07:50:38;;;;;;;9.75;5.65;;;;;;;19.10;84.25;98670.41;4203060;28;20537;-72
2022/07/30 07:52:38;;;;;;;7.07;6.38;;;;;;;18.88;82.43;98670.03;4199014;28;20087;-72
2022/07/30 07:54:39;;;;;;;9.38;5.60;;;;;;;18.92;83.59;98664.34;4201612;28;20085;-72
2022/07/30 07:56:39;;;;;;;8.40;5.70;;;;;;;18.84;82.18;98671.31;4202075;28;20081;-72
2022/07/30 07:58:40;;;;;;;6.47;5.70;;;;;;;18.86;82.74;98675.25;4200919;28;20044;-72
2022/07/30 08:00:40;;;;;;;8.52;6.00;;;;;;;18.90;83.32;98667.59;4201647;28;21105;-72
2022/07/30 08:02:40;;;;;;;5.53;5.03;;;;;;;18.93;83.38;98668.75;4198387;28;20051;-72
2022/07/30 08:04:41;;;;;;;6.88;5.57;;;;;;;18.86;82.69;98675.25;4202023;28;20043;-72
2022/07/30 08:06:41;;;;;;;7.55;5.13;;;;;;;18.96;82.00;98668.69;4200344;28;20139;-72
2022/07/30 08:08:41;;;;;;;5.93;5.35;;;;;;;18.96;82.55;98665.88;4200873;28;20044;-72
2022/07/30 08:10:42;;;;;;;7.03;5.60;;;;;;;19.04;83.40;98670.13;4201503;28;20063;-72
2022/07/30 08:12:42;;;;;;;7.65;5.80;;;;;;;18.99;82.87;98669.81;4200949;28;20036;-72
2022/07/30 08:14:42;;;;;;;6.55;5.55;;;;;;;19.08;83.33;98679.25;4201551;28;20480;-72
2022/07/30 08:16:43;;;;;;;7.15;5.97;;;;;;;18.89;83.00;98674.41;4202656;28;20113;-72
2022/07/30 08:18:43;;;;;;;6.82;5.43;;;;;;;19.03;83.23;98676.97;4199792;28;20044;-72
2022/07/30 08:20:43;;;;;;;8.80;5.75;;;;;;;19.20;82.53;98677.03;4201561;28;20052;-72
2022/07/30 08:22:44;;;;;;;7.13;5.35;;;;;;;19.37;81.07;98675.88;4201023;28;20652;-72
2022/07/30 08:24:44;;;;;;;10.23;5.82;;;;;;;19.53;78.70;98675.94;4199256;28;20415;-72
2022/07/30 08:26:44;;;;;;;6.22;5.68;;;;;;;19.58;79.42;98678.25;4199661;28;20507;-72
2022/07/30 08:28:45;;;;;;;5.85;5.25;;;;;;;19.71;78.73;98683.22;4201962;28;20068;-72
2022/07/30 08:30:46;;;;;;;8.57;5.30;;;;;;;19.62;77.76;98678.19;4201935;28;20432;-72
2022/07/30 08:32:46;;;;;;;9.90;6.13;;;;;;;19.53;77.20;98670.34;4201048;28;20047;-72
2022/07/30 08:34:46;;;;;;;7.15;5.50;;;;;;;19.55;77.54;98679.09;4201720;28;20464;-72
2022/07/30 08:36:47;;;;;;;6.55;5.60;;;;;;;19.72;79.02;98671.56;4202002;28;20059;-72
2022/07/30 08:38:47;;;;;;;6.45;5.07;;;;;;;19.80;79.01;98677.78;4199407;28;20528;-72
2022/07/30 08:40:47;;;;;;;7.15;5.68;;;;;;;19.77;77.88;98678.66;4200563;28;20079;-72
2022/07/30 08:42:48;;;;;;;5.85;5.18;;;;;;;19.57;75.58;98681.50;4199541;28;20051;-72
2022/07/30 08:44:51;;;;;;;7.47;5.00;;;;;;;19.73;74.96;98672.34;4204044;28;20130;-72
2022/07/30 08:46:55;;;;;;;8.27;4.63;;;;;;;19.67;73.27;98680.47;4205027;28;20482;-72
2022/07/30 08:48:56;;;;;;;6.40;4.93;;;;;;;19.88;73.70;98670.78;4204514;28;20048;-72
2022/07/30 08:50:56;;;;;;;7.50;5.30;;;;;;;20.00;73.65;98674.94;4205870;28;20484;-72
2022/07/30 08:52:57;;;;;;;5.97;5.20;;;;;;;20.16;73.15;98675.72;4204414;28;20043;-72
2022/07/30 08:54:59;;;;;;;5.22;4.50;;;;;;;19.82;70.46;98675.34;4204903;28;20051;-72
2022/07/30 08:57:01;;;;;;;5.90;4.40;;;;;;;19.96;70.89;98679.84;4203871;28;20101;-72
2022/07/30 08:59:02;;;;;;;7.40;6.70;;;;;;;20.03;71.44;98686.09;4205280;28;20537;-72
2022/07/30 09:01:05;;;;;;;7.53;4.72;;;;;;;20.15;70.10;98681.78;4204697;28;20044;-72
2022/07/30 09:03:05;;;;;;;5.05;4.55;;;;;;;20.11;70.08;98679.09;4204373;28;20056;-72
2022/07/30 09:05:06;;;;;;;5.18;4.68;;;;;;;20.39;70.88;98682.41;4205767;28;20404;-72
2022/07/30 09:07:07;;;;;;;6.18;4.57;;;;;;;20.73;70.42;98673.53;4204488;28;20055;-72
2022/07/30 09:09:07;;;;;;;5.25;4.47;;;;;;;20.92;67.15;98674.66;4203370;28;20052;-72
2022/07/30 09:11:07;;;;;;;6.95;4.68;;;;;;;20.61;67.10;98672.25;4205137;28;20056;-72
2022/07/30 09:13:24;;;;;;;4.78;3.90;;;;;;;20.45;65.54;98678.69;4203050;28;20113;-72
2022/07/30 09:15:25;;;;;;;7.03;4.10;;;;;;;20.27;67.13;98674.69;4203585;28;20059;-72
2022/07/30 09:17:26;;;;;;;5.35;3.67;;;;;;;20.12;68.68;98682.69;4205452;28;20488;-72
2022/07/30 09:19:26;;;;;;;4.30;3.90;;;;;;;20.12;68.46;98677.84;4203341;28;20289;-72
2022/07/30 09:21:28;;;;;;;4.45;3.60;;;;;;;20.18;66.07;98673.28;4205607;28;20047;-72
2022/07/30 09:23:28;;;;;;;4.88;4.05;;;;;;;20.19;66.19;98677.69;4202964;28;20051;-72
2022/07/30 09:25:46;;;;;;;4.15;3.75;;;;;;;20.18;66.16;98669.66;4204449;28;20392;-72
2022/07/30 09:27:48;;;;;;;5.07;3.58;;;;;;;20.24;66.87;98667.94;4200845;28;20400;-72
2022/07/30 09:29:59;;;;;;;4.38;3.38;;;;;;;20.30;66.77;98665.38;4202375;28;20406;-72